ADDS METAR Data INFO
IDs: Format: Raw Decoded Include TAF

Data at: 1751 UTC 21 Oct 2017

KOKC 211652Z 18018G24KT 10SM FEW020 SCT025 BKN038 23/18 A2987 RMK AO2 SLP102 T02280183
KOKC 211602Z 18017G25KT 10SM FEW019 SCT024 OVC036 22/18 A2986 RMK AO2 T02170183
KOKC 211552Z 18020G25KT 10SM FEW019 BKN024 OVC036 22/18 A2986 RMK AO2 PK WND 17028/1538 SLP099 T02170183
KOKC 211452Z 17016G24KT 10SM FEW018 SCT032 BKN042 22/18 A2986 RMK AO2 PK WND 18027/1439 SLP097 T02170183 52008
KOKC 211352Z 17017KT 10SM FEW015 SCT024 OVC039 21/18 A2985 RMK AO2 SLP097 T02060183
KOKC 211332Z 18016KT 10SM BKN015 BKN020 BKN043 21/18 A2985 RMK AO2 T02060183
KOKC 211305Z 18014G21KT 10SM BKN014 BKN043 21/18 A2984 RMK AO2 T02060183
KOKC 211252Z 17014G22KT 10SM BKN016 BKN043 20/18 A2984 RMK AO2 SLP091 T02000183
KOKC 211152Z 17012KT 10SM BKN017 BKN045 20/18 A2983 RMK AO2 SLP090 T02000183 10206 20200 53007
KOKC 211052Z 17012KT 10SM OVC018 21/18 A2982 RMK AO2 SLP086 T02060183
KOKC 210952Z 17016G23KT 10SM BKN015 OVC021 21/18 A2981 RMK AO2 SLP083 T02060183
KOKC 210912Z 17013G23KT 10SM BKN014 20/18 A2980 RMK AO2 T02000183
KOKC 210852Z 17014G23KT 10SM BKN016 BKN022 20/18 A2981 RMK AO2 PK WND 17027/0811 SLP082 T02000183 56015
KOKC 210752Z 17019G26KT 10SM BKN017 OVC022 21/18 A2982 RMK AO2 PK WND 17027/0657 SLP086 T02060178
KOKC 210652Z 17022G28KT 10SM OVC017 21/17 A2984 RMK AO2 PK WND 18028/0652 SLP092 T02060172
KOKC 210552Z 17015G24KT 10SM BKN021 21/17 A2986 RMK AO2 SLP097 T02060172 10233 20206 402560144 50000
KOKC 210527Z 17015G22KT 10SM BKN022 BKN027 21/17 A2987 RMK AO2 T02110172
KOKC 210452Z 16014KT 10SM FEW025 SCT040 21/17 A2986 RMK AO2 SLP100 T02060172
KOKC 210425Z 16012G19KT 10SM BKN025 OVC041 21/17 A2987 RMK AO2 T02110172
KOKC 210352Z 16012G20KT 10SM BKN036 BKN250 22/17 A2986 RMK AO2 SLP101 T02170172
KOKC 210252Z 16012G20KT 10SM FEW038 BKN050 BKN250 22/17 A2985 RMK AO2 SLP099 T02220172 51002
KOKC 210152Z 17016G25KT 10SM BKN045 BKN250 22/17 A2985 RMK AO2 SLP099 T02220167
KOKC 210052Z 17016G22KT 10SM SCT038 SCT150 BKN250 22/17 A2985 RMK AO2 SLP100 T02220167
KOKC 202352Z 17017G26KT 10SM FEW045 SCT150 SCT250 23/17 A2985 RMK AO2 PK WND 17027/2334 SLP097 T02330167 10256 20228 56006
KOKC 202252Z 17017G25KT 10SM SCT043 BKN050 BKN140 BKN250 25/16 A2985 RMK AO2 PK WND 16028/2156 SLP098 T02500161
KOKC 202152Z 16019G25KT 10SM BKN045 BKN140 BKN250 24/16 A2986 RMK AO2 PK WND 17030/2124 SLP101 T02440161
KOKC 202052Z 17019G26KT 10SM BKN046 BKN055 BKN150 BKN200 25/15 A2987 RMK AO2 PK WND 17026/2004 SLP102 T02500150 56033
KOKC 201952Z 17018G25KT 10SM SCT049 BKN150 BKN250 24/13 A2989 RMK AO2 PK WND 17026/1928 SLP112 T02440128
KOKC 201852Z 16019G28KT 10SM FEW042 BKN150 BKN250 23/14 A2993 RMK AO2 PK WND 17031/1757 SLP126 T02330139
KOKC 201752Z 16019G26KT 10SM FEW042 SCT250 24/14 A2997 RMK AO2 PK WND 15030/1734 SLP138 T02390144 10239 20144 58022
KOKC 201652Z 15015G26KT 10SM FEW045 FEW250 23/14 A3000 RMK AO2 PK WND 18027/1637 SLP148 T02280144
KOKC 201552Z 16017G24KT 10SM FEW150 SCT250 21/14 A3003 RMK AO2 SLP158 T02110139
KOKC 201452Z 17013KT 10SM SCT150 SCT250 19/14 A3004 RMK AO2 SLP163 T01890144 56005
KOKC 201352Z 16006KT 10SM SCT130 SCT250 16/13 A3004 RMK AO2 SLP165 T01560133
KOKC 201252Z 16009KT 10SM SCT130 SCT250 14/13 A3004 RMK AO2 SLP164 T01440128
KOKC 201152Z 17008KT 10SM FEW055 BKN250 14/12 A3005 RMK AO2 SLP169 T01440122 10150 20144 56002
KOKC 201052Z 16007KT 10SM SCT055 BKN250 14/12 A3006 RMK AO2 SLP169 T01440122
KOKC 200952Z 15009KT 10SM BKN250 14/12 A3005 RMK AO2 SLP167 T01440117
KOKC 200852Z 15010KT 10SM BKN250 14/11 A3006 RMK AO2 SLP168 T01440111 58006
KOKC 200752Z 15010KT 10SM BKN250 14/11 A3007 RMK AO2 SLP171 T01440111
KOKC 200652Z 16010KT 10SM BKN250 15/11 A3007 RMK AO2 SLP173 T01500111
KOKC 200552Z 16009KT 10SM BKN250 15/11 A3008 RMK AO2 SLP176 T01500106 10189 20150 402610106 50000